Time;durP1;ratioP1;P1;durP2;ratioP2;P2;SDS_P1;SDS_P2;PMS_P1;PMS_P2;Temp;Humidity;BMP_temperature;BMP_pressure;BME280_temperature;BME280_humidity;BME280_pressure;Samples;Min_cycle;Max_cycle;Signal;HPM_P1;HPM_P2
2021/10/07 00:01:58;;;;;;;9.60;6.03;;;12.30;90.90;;;;;;5054649;28;20225;-71
2021/10/07 00:04:26;;;;;;;9.80;5.90;;;12.30;91.10;;;;;;5054003;28;20655;-70
2021/10/07 00:06:53;;;;;;;8.30;6.10;;;12.30;91.30;;;;;;5054967;28;20674;-72
2021/10/07 00:09:20;;;;;;;10.87;6.07;;;12.30;91.40;;;;;;5054776;28;20205;-71
2021/10/07 00:11:46;;;;;;;9.20;5.93;;;12.30;91.50;;;;;;5054803;28;20216;-71
2021/10/07 00:14:13;;;;;;;11.50;6.33;;;12.30;91.70;;;;;;5054158;28;20293;-71
2021/10/07 00:16:42;;;;;;;6.63;5.33;;;12.30;91.80;;;;;;5053799;28;20205;-70
2021/10/07 00:19:09;;;;;;;10.30;6.33;;;12.20;91.90;;;;;;5054183;28;20209;-71
2021/10/07 00:21:36;;;;;;;9.43;6.17;;;12.20;91.90;;;;;;5053616;28;20226;-70
2021/10/07 00:24:09;;;;;;;8.23;6.23;;;12.20;91.90;;;;;;5054125;28;20201;-70
2021/10/07 00:26:38;;;;;;;11.70;6.67;;;12.30;92.10;;;;;;5054326;28;20204;-70
2021/10/07 00:29:18;;;;;;;9.87;5.77;;;12.10;92.10;;;;;;5054039;28;20232;-70
2021/10/07 00:31:49;;;;;;;7.40;5.83;;;12.20;92.20;;;;;;5054512;28;20603;-70
2021/10/07 00:34:22;;;;;;;8.27;6.10;;;12.20;92.20;;;;;;5054578;28;20615;-71
2021/10/07 00:37:09;;;;;;;9.50;5.83;;;12.20;92.30;;;;;;5054467;28;20316;-70
2021/10/07 00:39:35;;;;;;;8.23;5.60;;;12.20;92.20;;;;;;5049685;28;20209;-70
2021/10/07 00:42:02;;;;;;;8.13;5.57;;;12.10;92.20;;;;;;5051670;28;20678;-70
2021/10/07 00:44:31;;;;;;;8.40;5.53;;;12.10;92.20;;;;;;5053786;28;20221;-71
2021/10/07 00:47:01;;;;;;;10.20;6.30;;;12.10;92.30;;;;;;5053936;28;20226;-70
2021/10/07 00:49:32;;;;;;;12.40;6.50;;;12.10;92.40;;;;;;5053489;28;20225;-70
2021/10/07 00:51:59;;;;;;;9.67;5.37;;;12.10;92.60;;;;;;5065250;28;20269;-70
2021/10/07 00:54:28;;;;;;;8.47;5.50;;;12.10;92.70;;;;;;5056425;28;20284;-70
2021/10/07 00:56:56;;;;;;;9.80;6.30;;;12.10;92.60;;;;;;5053136;28;20709;-70
2021/10/07 00:59:24;;;;;;;9.73;5.53;;;12.00;92.50;;;;;;5053395;28;20210;-71
2021/10/07 01:01:51;;;;;;;8.37;5.83;;;12.00;92.60;;;;;;5053163;28;20313;-71
2021/10/07 01:04:19;;;;;;;13.00;6.30;;;12.00;92.50;;;;;;5054126;28;20210;-71
2021/10/07 01:06:46;;;;;;;7.87;5.60;;;12.00;92.50;;;;;;5055719;28;20639;-70
2021/10/07 01:09:13;;;;;;;8.67;5.70;;;12.00;92.40;;;;;;5054186;28;20202;-70
2021/10/07 01:11:40;;;;;;;8.97;5.53;;;12.00;92.20;;;;;;5053482;28;20202;-71
2021/10/07 01:14:07;;;;;;;6.83;5.67;;;11.80;92.00;;;;;;5065093;28;20209;-71
2021/10/07 01:16:34;;;;;;;7.90;5.90;;;11.90;92.10;;;;;;5054669;28;20658;-71
2021/10/07 01:19:01;;;;;;;11.17;5.77;;;11.90;92.00;;;;;;5053127;28;20202;-71
2021/10/07 01:21:29;;;;;;;11.30;5.33;;;11.90;91.60;;;;;;5053358;28;20236;-72
2021/10/07 01:23:56;;;;;;;7.20;5.40;;;11.90;91.50;;;;;;5053692;28;20216;-70
2021/10/07 01:26:24;;;;;;;10.17;5.67;;;11.90;91.60;;;;;;5053355;28;20213;-71
2021/10/07 01:28:52;;;;;;;11.73;6.00;;;11.90;91.50;;;;;;5052444;28;20245;-71
2021/10/07 01:31:20;;;;;;;9.30;5.67;;;11.90;91.50;;;;;;5053578;28;20206;-70
2021/10/07 01:33:47;;;;;;;10.10;5.30;;;11.90;91.50;;;;;;5053334;28;20214;-71
2021/10/07 01:36:14;;;;;;;6.20;4.80;;;11.90;91.50;;;;;;5052905;28;20237;-71
2021/10/07 01:38:43;;;;;;;7.47;5.30;;;11.90;91.40;;;;;;5052092;28;20209;-71
2021/10/07 01:41:09;;;;;;;12.20;6.27;;;11.90;91.30;;;;;;5052293;28;20232;-70
2021/10/07 01:43:36;;;;;;;8.27;5.83;;;11.90;91.20;;;;;;5052525;28;20206;-70
2021/10/07 01:46:03;;;;;;;8.10;5.27;;;11.90;91.20;;;;;;5053094;28;20647;-71
2021/10/07 01:48:31;;;;;;;9.80;5.67;;;11.80;91.10;;;;;;5052874;28;20214;-70
2021/10/07 01:50:58;;;;;;;7.83;5.60;;;11.80;91.00;;;;;;5055830;28;20263;-71
2021/10/07 01:53:25;;;;;;;11.00;5.73;;;11.80;90.70;;;;;;5056220;28;20209;-70
2021/10/07 01:55:53;;;;;;;8.90;5.40;;;11.80;90.70;;;;;;5053157;28;20220;-71
2021/10/07 01:58:20;;;;;;;10.87;5.90;;;11.80;90.70;;;;;;5052500;28;20686;-70
2021/10/07 02:00:48;;;;;;;8.33;5.53;;;11.80;90.80;;;;;;5052732;28;20218;-71
2021/10/07 02:03:15;;;;;;;8.87;5.60;;;11.80;90.70;;;;;;5053578;28;20222;-71
2021/10/07 02:05:41;;;;;;;8.07;5.47;;;11.80;90.70;;;;;;5052922;28;20213;-70
2021/10/07 02:08:08;;;;;;;9.77;5.13;;;11.70;90.70;;;;;;5051983;28;20301;-71
2021/10/07 02:10:35;;;;;;;9.77;5.63;;;11.70;90.80;;;;;;5052539;28;20239;-71
2021/10/07 02:13:04;;;;;;;10.87;6.00;;;11.70;90.70;;;;;;5055352;28;20237;-70
2021/10/07 02:15:30;;;;;;;9.20;5.43;;;11.70;90.80;;;;;;5062615;28;20269;-71
2021/10/07 02:17:57;;;;;;;11.10;5.80;;;11.70;90.80;;;;;;5052146;28;20206;-70
2021/10/07 02:20:24;;;;;;;9.80;5.83;;;11.70;90.70;;;;;;5052526;28;20233;-71
2021/10/07 02:22:51;;;;;;;7.63;5.57;;;11.80;90.70;;;;;;5051776;28;20329;-70
2021/10/07 02:25:18;;;;;;;8.20;5.30;;;11.60;90.60;;;;;;5051683;28;20651;-71
2021/10/07 02:27:45;;;;;;;9.17;5.60;;;11.60;90.60;;;;;;5051184;28;20209;-71
2021/10/07 02:30:16;;;;;;;8.67;5.10;;;11.60;90.60;;;;;;5052367;28;20216;-71
2021/10/07 02:32:44;;;;;;;6.73;5.57;;;11.60;90.60;;;;;;5052278;28;20198;-70
2021/10/07 02:35:12;;;;;;;7.37;5.80;;;11.60;90.50;;;;;;5052154;28;20241;-70
2021/10/07 02:37:54;;;;;;;8.83;5.57;;;11.60;90.60;;;;;;5083399;27;20621;-71
2021/10/07 02:40:21;;;;;;;6.73;5.13;;;11.50;90.40;;;;;;5052122;28;20640;-71
2021/10/07 02:42:48;;;;;;;7.20;5.50;;;11.50;90.30;;;;;;5049794;28;20297;-70
2021/10/07 02:45:17;;;;;;;9.37;5.73;;;11.50;90.40;;;;;;5049772;28;20209;-71
2021/10/07 02:47:46;;;;;;;8.10;5.30;;;11.40;90.40;;;;;;5050432;28;20216;-70
2021/10/07 02:50:14;;;;;;;9.27;5.60;;;11.50;90.60;;;;;;5051042;28;20301;-70
2021/10/07 02:52:41;;;;;;;8.83;5.53;;;11.40;90.50;;;;;;5063866;28;20206;-71
2021/10/07 02:55:10;;;;;;;6.83;5.67;;;11.40;90.40;;;;;;5052867;28;20579;-70
2021/10/07 02:57:37;;;;;;;9.20;5.70;;;11.40;90.50;;;;;;5068630;28;20221;-71
2021/10/07 03:00:05;;;;;;;8.90;5.93;;;11.40;90.50;;;;;;5069519;28;20209;-70
2021/10/07 03:02:32;;;;;;;10.80;6.00;;;11.40;90.50;;;;;;5054984;28;20210;-71
2021/10/07 03:04:59;;;;;;;8.47;6.23;;;11.40;90.50;;;;;;5049104;28;20206;-71
2021/10/07 03:07:26;;;;;;;7.87;6.07;;;11.40;90.50;;;;;;5068836;28;20212;-71
2021/10/07 03:09:53;;;;;;;7.63;5.57;;;11.40;90.40;;;;;;5064068;28;20808;-71
2021/10/07 03:12:21;;;;;;;13.63;6.37;;;11.30;90.40;;;;;;5048583;28;20209;-71
2021/10/07 03:14:48;;;;;;;8.90;6.17;;;11.30;90.50;;;;;;5058037;28;20212;-71
2021/10/07 03:17:16;;;;;;;9.23;5.87;;;11.20;90.40;;;;;;5063402;28;20585;-71
2021/10/07 03:19:43;;;;;;;8.30;6.13;;;11.30;90.50;;;;;;5053550;28;20214;-71
2021/10/07 03:22:11;;;;;;;9.90;6.27;;;11.20;90.40;;;;;;5051606;28;20210;-70
2021/10/07 03:24:38;;;;;;;8.87;6.20;;;11.20;90.50;;;;;;5068328;28;20213;-70
2021/10/07 03:27:05;;;;;;;7.87;5.23;;;11.20;90.50;;;;;;5062351;28;20198;-71
2021/10/07 03:29:33;;;;;;;11.00;5.53;;;11.20;90.40;;;;;;5056494;28;20683;-70
2021/10/07 03:32:00;;;;;;;10.47;6.10;;;11.20;90.40;;;;;;5048925;28;20217;-71
2021/10/07 03:34:27;;;;;;;12.07;5.90;;;11.20;90.40;;;;;;5048404;28;20662;-71
2021/10/07 03:36:54;;;;;;;8.57;5.00;;;11.20;90.40;;;;;;5049338;28;20240;-71
2021/10/07 03:39:21;;;;;;;8.97;5.43;;;11.20;90.40;;;;;;5065755;28;20213;-70
2021/10/07 03:41:48;;;;;;;8.37;6.10;;;11.10;90.10;;;;;;5066605;28;20212;-71
2021/10/07 03:44:15;;;;;;;10.07;6.20;;;11.10;90.20;;;;;;5056189;28;20328;-71
2021/10/07 03:46:43;;;;;;;17.63;6.50;;;11.10;90.30;;;;;;5068060;28;20213;-71
2021/10/07 03:49:10;;;;;;;8.07;5.73;;;11.00;90.30;;;;;;5052086;28;20206;-71
2021/10/07 03:51:37;;;;;;;8.47;5.80;;;11.00;90.30;;;;;;5045490;28;20218;-72
2021/10/07 03:54:04;;;;;;;10.43;5.77;;;10.90;90.20;;;;;;5049156;28;20210;-71
2021/10/07 03:56:30;;;;;;;11.27;6.60;;;10.90;90.00;;;;;;5050240;28;20232;-70
2021/10/07 03:58:57;;;;;;;9.23;5.77;;;10.90;90.40;;;;;;5050371;28;20212;-71
2021/10/07 04:01:24;;;;;;;11.77;5.63;;;10.90;90.00;;;;;;5040539;28;20198;-70
2021/10/07 04:03:52;;;;;;;10.70;6.07;;;10.90;90.00;;;;;;5055001;28;20232;-71
2021/10/07 04:06:19;;;;;;;8.43;6.00;;;10.80;89.80;;;;;;5037672;28;20333;-70
2021/10/07 04:08:46;;;;;;;10.27;6.07;;;10.80;89.70;;;;;;5050504;28;20654;-70
2021/10/07 04:11:13;;;;;;;9.33;6.17;;;10.80;89.90;;;;;;5051949;28;20209;-71
2021/10/07 04:13:40;;;;;;;8.97;5.80;;;10.70;89.70;;;;;;5049928;28;20193;-71
2021/10/07 04:16:07;;;;;;;9.97;6.20;;;10.70;89.90;;;;;;5040711;28;20221;-71
2021/10/07 04:18:34;;;;;;;8.57;6.47;;;10.60;89.70;;;;;;5052037;28;20224;-71
2021/10/07 04:21:02;;;;;;;9.10;6.03;;;10.50;89.80;;;;;;5055397;28;20213;-71
2021/10/07 04:23:29;;;;;;;9.93;6.23;;;10.60;90.00;;;;;;5055051;28;20285;-71
2021/10/07 04:25:55;;;;;;;8.83;5.60;;;10.50;90.00;;;;;;5054604;28;20866;-71
2021/10/07 04:28:22;;;;;;;10.67;5.90;;;10.50;90.00;;;;;;5042141;28;20571;-71
2021/10/07 04:30:49;;;;;;;8.47;5.93;;;10.50;90.00;;;;;;5054477;28;20209;-71
2021/10/07 04:33:16;;;;;;;8.80;5.77;;;10.50;90.00;;;;;;5054877;28;20268;-71
2021/10/07 04:35:43;;;;;;;8.47;5.70;;;10.40;90.00;;;;;;5054513;28;20601;-72
2021/10/07 04:38:11;;;;;;;9.63;6.13;;;10.40;90.00;;;;;;5052575;28;20222;-71
2021/10/07 04:40:38;;;;;;;11.30;5.97;;;10.30;89.90;;;;;;5054793;28;20292;-72
2021/10/07 04:43:05;;;;;;;10.73;6.10;;;10.30;90.00;;;;;;5044069;28;20216;-71
2021/10/07 04:45:32;;;;;;;12.40;6.03;;;10.30;90.00;;;;;;5038725;28;20296;-71
2021/10/07 04:47:59;;;;;;;8.70;5.90;;;10.30;90.00;;;;;;5051531;28;20194;-70
2021/10/07 04:50:26;;;;;;;12.43;6.27;;;10.20;90.00;;;;;;5053288;28;20216;-71
2021/10/07 04:52:53;;;;;;;10.40;6.10;;;10.20;90.10;;;;;;5053827;28;20639;-71
2021/10/07 04:55:21;;;;;;;10.57;6.13;;;10.10;90.00;;;;;;5049359;28;20210;-71
2021/10/07 04:57:48;;;;;;;9.13;6.13;;;10.10;89.90;;;;;;5049259;28;20257;-72
2021/10/07 05:00:15;;;;;;;10.67;5.50;;;10.10;90.00;;;;;;5045424;28;20216;-72
2021/10/07 05:02:45;;;;;;;9.77;6.67;;;10.00;90.10;;;;;;5049379;28;20221;-71
2021/10/07 05:05:12;;;;;;;10.77;6.67;;;10.00;90.10;;;;;;5045354;28;20683;-71
2021/10/07 05:07:39;;;;;;;7.17;5.53;;;10.00;90.20;;;;;;5038165;28;20290;-71
2021/10/07 05:10:08;;;;;;;11.70;5.83;;;9.90;90.70;;;;;;5055066;28;20209;-71
2021/10/07 05:12:38;;;;;;;8.63;5.80;;;9.90;90.80;;;;;;5042676;28;20215;-71
2021/10/07 05:15:06;;;;;;;8.27;6.10;;;9.90;90.80;;;;;;5051260;28;20202;-72
2021/10/07 05:17:33;;;;;;;11.40;6.03;;;9.90;90.80;;;;;;5050027;28;20221;-69
2021/10/07 05:20:00;;;;;;;15.53;7.20;;;9.90;90.90;;;;;;5043229;28;20639;-69
2021/10/07 05:22:27;;;;;;;9.27;6.30;;;9.90;91.30;;;;;;5035317;28;20398;-70
2021/10/07 05:24:53;;;;;;;10.23;5.53;;;9.90;91.20;;;;;;5040467;28;20219;-71
2021/10/07 05:27:20;;;;;;;10.53;5.70;;;10.00;90.80;;;;;;5052831;28;20206;-70
2021/10/07 05:29:48;;;;;;;9.00;6.00;;;10.10;90.50;;;;;;5046098;28;20205;-71
2021/10/07 05:32:15;;;;;;;9.93;6.20;;;10.10;90.40;;;;;;5053069;28;20210;-71
2021/10/07 05:34:42;;;;;;;9.93;6.97;;;10.20;90.60;;;;;;5051743;28;20224;-74
2021/10/07 05:37:09;;;;;;;14.00;5.97;;;10.20;90.70;;;;;;5047194;28;20233;-70
2021/10/07 05:39:36;;;;;;;7.57;5.20;;;10.20;90.40;;;;;;5043162;28;20213;-71
2021/10/07 05:42:03;;;;;;;10.80;7.30;;;10.10;90.10;;;;;;5049239;28;20281;-71
2021/10/07 05:44:30;;;;;;;14.00;6.63;;;10.20;90.10;;;;;;5048910;28;20205;-69
2021/10/07 05:46:59;;;;;;;10.57;6.10;;;10.30;90.00;;;;;;5043221;28;20206;-71
2021/10/07 05:49:27;;;;;;;13.10;6.37;;;10.20;89.70;;;;;;5045081;28;20202;-70
2021/10/07 05:51:54;;;;;;;9.70;6.50;;;10.10;89.30;;;;;;5047066;28;20702;-69
2021/10/07 05:54:21;;;;;;;11.17;5.60;;;10.10;89.70;;;;;;5043258;28;20658;-71
2021/10/07 05:56:48;;;;;;;9.87;5.97;;;10.10;90.00;;;;;;5047528;28;20232;-69
2021/10/07 05:59:18;;;;;;;9.43;5.97;;;10.00;89.40;;;;;;5049212;28;20221;-72
2021/10/07 06:01:45;;;;;;;10.43;5.80;;;10.00;89.70;;;;;;5042342;28;20435;-71
2021/10/07 06:04:13;;;;;;;8.20;5.87;;;10.00;89.70;;;;;;5052031;28;20297;-69
2021/10/07 06:06:40;;;;;;;14.03;6.63;;;10.00;89.70;;;;;;5047978;28;20267;-71
2021/10/07 06:09:08;;;;;;;10.27;6.07;;;10.00;89.30;;;;;;5041298;28;20873;-70
2021/10/07 06:11:39;;;;;;;9.20;6.10;;;10.00;89.60;;;;;;5051705;28;20205;-70
2021/10/07 06:14:06;;;;;;;10.87;6.30;;;10.00;89.70;;;;;;5052270;28;20206;-70
2021/10/07 06:16:38;;;;;;;8.03;5.60;;;10.10;89.80;;;;;;5048241;28;20256;-72
2021/10/07 06:19:07;;;;;;;10.17;5.87;;;10.10;89.80;;;;;;5051424;28;20225;-71
2021/10/07 06:21:35;;;;;;;10.17;5.80;;;10.10;89.40;;;;;;5051076;28;20672;-73
2021/10/07 06:24:02;;;;;;;12.70;6.03;;;10.20;88.90;;;;;;5041609;28;20689;-71
2021/10/07 06:26:30;;;;;;;10.53;5.77;;;10.30;89.10;;;;;;5041603;28;20209;-72
2021/10/07 06:28:57;;;;;;;10.47;6.60;;;10.40;89.10;;;;;;5052787;28;20206;-72
2021/10/07 06:31:23;;;;;;;8.40;5.47;;;10.50;88.70;;;;;;5052657;28;20209;-73
2021/10/07 06:33:50;;;;;;;10.07;6.27;;;10.60;89.00;;;;;;5052197;28;20206;-70
2021/10/07 06:36:17;;;;;;;9.57;7.03;;;10.60;87.80;;;;;;5048988;28;20269;-69
2021/10/07 06:38:46;;;;;;;15.13;6.37;;;10.70;87.40;;;;;;5050201;28;20264;-72
2021/10/07 06:41:14;;;;;;;7.00;5.70;;;10.80;87.20;;;;;;5044394;28;20269;-72
2021/10/07 06:43:40;;;;;;;12.37;5.80;;;10.90;87.10;;;;;;5045263;28;20264;-71
2021/10/07 06:46:08;;;;;;;9.63;6.43;;;11.00;87.00;;;;;;5050734;28;20256;-70
2021/10/07 06:48:35;;;;;;;8.73;5.90;;;11.10;86.70;;;;;;5048203;28;20263;-68
2021/10/07 06:51:02;;;;;;;14.53;6.30;;;11.20;86.20;;;;;;5050724;28;20279;-70
2021/10/07 06:53:30;;;;;;;9.27;5.50;;;11.30;86.10;;;;;;5041853;28;20245;-70
2021/10/07 06:55:58;;;;;;;14.23;6.30;;;11.30;85.70;;;;;;5042930;28;20212;-69
2021/10/07 06:58:25;;;;;;;11.57;6.00;;;11.40;85.50;;;;;;5044654;28;20305;-70
2021/10/07 07:00:52;;;;;;;11.37;6.00;;;11.50;84.70;;;;;;5044943;28;20293;-70
2021/10/07 07:03:19;;;;;;;8.40;5.30;;;11.60;84.20;;;;;;5038316;28;20252;-69
2021/10/07 07:05:46;;;;;;;7.33;5.53;;;11.60;84.00;;;;;;5047029;28;20217;-69
2021/10/07 07:08:13;;;;;;;11.70;5.63;;;11.90;84.30;;;;;;5041730;28;20206;-70
2021/10/07 07:10:40;;;;;;;8.20;5.83;;;12.20;82.70;;;;;;5042143;28;20301;-70
2021/10/07 07:13:09;;;;;;;8.70;5.50;;;12.30;82.00;;;;;;5046244;28;20202;-71
2021/10/07 07:15:36;;;;;;;10.17;5.60;;;12.40;81.30;;;;;;5050053;28;20695;-71
2021/10/07 07:18:03;;;;;;;8.03;5.47;;;12.40;81.00;;;;;;5047046;28;20226;-71
2021/10/07 07:20:30;;;;;;;12.67;6.37;;;12.30;80.70;;;;;;5045882;28;20230;-70
2021/10/07 07:22:57;;;;;;;8.53;5.37;;;12.30;81.10;;;;;;5046241;28;20288;-70
2021/10/07 07:25:24;;;;;;;7.80;5.17;;;12.40;81.10;;;;;;5048683;28;20214;-69
2021/10/07 07:27:51;;;;;;;12.10;5.20;;;12.50;80.70;;;;;;5043619;28;20202;-70
2021/10/07 07:30:19;;;;;;;10.57;5.50;;;12.80;79.50;;;;;;5050214;28;20645;-72
2021/10/07 07:32:46;;;;;;;12.27;5.93;;;13.00;77.90;;;;;;5054821;28;20237;-70
2021/10/07 07:35:13;;;;;;;7.47;5.13;;;13.10;76.80;;;;;;5049160;28;20259;-71
2021/10/07 07:37:40;;;;;;;9.30;4.83;;;13.00;76.60;;;;;;5048508;28;20226;-71
2021/10/07 07:40:08;;;;;;;9.13;4.80;;;13.00;76.80;;;;;;5055591;28;20619;-72
2021/10/07 07:42:35;;;;;;;13.07;6.33;;;13.00;76.70;;;;;;5041253;28;20633;-70
2021/10/07 07:45:03;;;;;;;7.90;5.00;;;13.00;77.00;;;;;;5056012;28;20288;-71
2021/10/07 07:47:31;;;;;;;13.63;5.23;;;13.10;76.40;;;;;;5050932;28;20261;-73
2021/10/07 07:49:58;;;;;;;11.30;5.53;;;13.10;76.10;;;;;;5056674;28;20612;-71
2021/10/07 07:52:25;;;;;;;8.50;5.43;;;13.00;76.30;;;;;;5054505;28;20244;-71
2021/10/07 07:54:54;;;;;;;13.33;5.33;;;13.00;76.20;;;;;;5055878;28;20573;-73
2021/10/07 07:57:21;;;;;;;8.60;4.67;;;13.00;75.60;;;;;;5050205;28;20720;-72
2021/10/07 07:59:48;;;;;;;8.87;4.87;;;13.10;76.00;;;;;;5055887;28;20690;-70
2021/10/07 08:02:15;;;;;;;10.47;5.30;;;13.20;76.00;;;;;;5055839;28;20564;-72
2021/10/07 08:04:46;;;;;;;10.63;5.03;;;13.30;75.60;;;;;;5037304;28;20213;-72
2021/10/07 08:07:14;;;;;;;23.90;5.67;;;13.50;75.60;;;;;;5035740;28;20218;-73
2021/10/07 08:09:44;;;;;;;8.00;5.27;;;13.60;75.10;;;;;;5052005;28;20209;-73
2021/10/07 08:12:12;;;;;;;7.57;4.73;;;13.80;75.00;;;;;;5048929;28;20198;-71
2021/10/07 08:14:39;;;;;;;13.63;5.07;;;14.00;74.70;;;;;;5041696;28;20622;-72
2021/10/07 08:17:06;;;;;;;8.43;5.47;;;14.30;74.60;;;;;;5038973;28;20659;-71
2021/10/07 08:19:33;;;;;;;11.87;5.37;;;14.60;73.40;;;;;;5044935;28;20312;-71
2021/10/07 08:22:02;;;;;;;9.23;5.10;;;14.80;72.90;;;;;;5041127;28;20245;-71
2021/10/07 08:24:29;;;;;;;8.47;5.77;;;15.00;72.10;;;;;;5046248;28;20239;-72
2021/10/07 08:26:56;;;;;;;9.17;4.97;;;15.30;71.40;;;;;;5047677;28;20205;-71
2021/10/07 08:29:23;;;;;;;12.17;5.43;;;15.40;70.50;;;;;;5044462;28;20827;-71
2021/10/07 08:31:50;;;;;;;6.63;5.30;;;15.60;69.40;;;;;;5045995;28;20734;-70
2021/10/07 08:34:17;;;;;;;6.87;4.53;;;15.70;69.20;;;;;;5041499;28;20210;-71
2021/10/07 08:36:46;;;;;;;9.50;6.00;;;15.90;69.00;;;;;;5037789;28;20313;-71
2021/10/07 08:39:16;;;;;;;6.53;4.63;;;16.00;68.30;;;;;;5044727;28;20734;-71
2021/10/07 08:41:47;;;;;;;9.90;5.50;;;16.20;68.10;;;;;;5053212;28;20666;-70
2021/10/07 08:44:15;;;;;;;9.67;5.40;;;16.30;67.00;;;;;;5042093;28;20205;-71
2021/10/07 08:46:42;;;;;;;10.47;5.33;;;16.30;66.50;;;;;;5045609;28;20573;-72
2021/10/07 08:49:13;;;;;;;9.03;5.10;;;16.30;66.50;;;;;;5043724;28;20288;-71
2021/10/07 08:51:40;;;;;;;10.17;4.87;;;16.20;66.50;;;;;;5050605;28;20202;-71
2021/10/07 08:54:07;;;;;;;6.87;5.00;;;16.20;66.60;;;;;;5051634;28;20547;-71
2021/10/07 08:56:36;;;;;;;8.20;4.83;;;16.30;66.60;;;;;;5050583;28;20266;-71
2021/10/07 08:59:04;;;;;;;9.70;5.53;;;16.40;66.30;;;;;;5042538;28;20333;-71
2021/10/07 09:01:37;;;;;;;8.50;4.90;;;16.50;65.40;;;;;;5040381;28;20201;-70
2021/10/07 09:04:24;;;;;;;10.63;5.80;;;16.60;65.20;;;;;;5046879;28;20238;-71
2021/10/07 09:06:53;;;;;;;12.70;6.50;;;16.70;64.80;;;;;;5046259;28;20628;-71
2021/10/07 09:09:21;;;;;;;8.33;4.90;;;16.80;65.30;;;;;;5044381;28;20285;-71
2021/10/07 09:11:58;;;;;;;9.80;5.60;;;17.20;65.40;;;;;;5053090;28;20202;-72
2021/10/07 09:14:28;;;;;;;13.45;5.07;;;18.30;64.00;;;;;;5053514;28;20539;-71
2021/10/07 09:16:57;;;;;;;12.35;5.28;;;19.30;61.90;;;;;;5049222;28;20206;-71
2021/10/07 09:19:25;;;;;;;10.80;5.05;;;20.70;59.60;;;;;;5046586;28;20683;-71
2021/10/07 09:21:55;;;;;;;8.52;4.45;;;22.20;55.50;;;;;;5052820;28;20212;-72
2021/10/07 09:24:36;;;;;;;9.10;4.95;;;22.40;52.90;;;;;;5053086;28;20205;-72
2021/10/07 09:27:07;;;;;;;9.43;4.72;;;21.90;52.60;;;;;;5053517;28;20669;-72
2021/10/07 09:29:40;;;;;;;8.73;5.05;;;21.40;53.40;;;;;;5053301;28;20198;-71
2021/10/07 09:32:09;;;;;;;11.35;5.13;;;21.00;54.20;;;;;;5052724;28;20205;-72
2021/10/07 09:34:47;;;;;;;10.25;4.97;;;20.90;54.30;;;;;;5053094;28;20280;-72
2021/10/07 09:37:29;;;;;;;10.25;5.63;;;21.00;55.00;;;;;;5040614;28;20233;-70
2021/10/07 09:39:59;;;;;;;9.20;5.00;;;21.50;54.70;;;;;;5046705;28;20207;-72
2021/10/07 09:42:30;;;;;;;8.88;4.88;;;22.10;53.10;;;;;;5053178;28;20262;-71
2021/10/07 09:44:58;;;;;;;12.75;4.97;;;23.10;52.60;;;;;;5052647;28;20645;-71
2021/10/07 09:47:30;;;;;;;11.02;4.65;;;24.00;50.00;;;;;;5043236;28;20237;-71
2021/10/07 09:50:16;;;;;;;7.03;4.22;;;25.10;49.40;;;;;;5050566;28;20213;-71
2021/10/07 09:52:45;;;;;;;8.95;4.50;;;26.90;45.90;;;;;;5047356;28;20276;-70
2021/10/07 09:55:15;;;;;;;11.98;4.57;;;28.60;45.00;;;;;;5032691;28;20648;-70
2021/10/07 09:57:51;;;;;;;11.98;4.00;;;30.60;40.20;;;;;;5050013;28;20206;-70
2021/10/07 10:00:19;;;;;;;10.38;4.30;;;31.80;37.70;;;;;;5051497;28;20209;-70
2021/10/07 10:02:45;;;;;;;10.30;3.78;;;33.20;35.50;;;;;;5039058;28;20217;-69
2021/10/07 10:05:14;;;;;;;11.95;4.32;;;34.20;34.10;;;;;;5048891;28;20220;-70
2021/10/07 10:07:41;;;;;;;10.90;4.00;;;35.10;32.20;;;;;;5051059;28;20215;-70
2021/10/07 10:10:09;;;;;;;6.13;4.03;;;35.90;31.40;;;;;;5051302;28;20206;-69
2021/10/07 10:12:36;;;;;;;6.47;3.90;;;36.80;29.90;;;;;;5049641;28;20210;-70
2021/10/07 10:15:06;;;;;;;11.02;4.18;;;37.30;29.70;;;;;;5046323;28;20213;-71
2021/10/07 10:17:34;;;;;;;8.85;4.13;;;37.80;29.20;;;;;;5042394;28;20282;-70
2021/10/07 10:20:02;;;;;;;8.13;3.90;;;38.60;28.10;;;;;;5032722;28;20218;-71
2021/10/07 10:22:31;;;;;;;8.15;3.72;;;39.00;27.60;;;;;;5043655;28;20208;-71
2021/10/07 10:25:00;;;;;;;5.70;3.42;;;38.50;26.90;;;;;;5053474;28;20288;-72
2021/10/07 10:27:37;;;;;;;6.75;3.40;;;38.70;27.30;;;;;;5049807;28;20210;-71
2021/10/07 10:30:32;;;;;;;7.82;4.22;;;38.90;26.60;;;;;;5046996;28;20259;-70
2021/10/07 10:33:01;;;;;;;9.85;3.70;;;39.10;26.50;;;;;;5047169;28;20202;-71
2021/10/07 10:35:39;;;;;;;9.20;3.40;;;40.30;26.20;;;;;;5043183;28;20413;-69
2021/10/07 10:38:10;;;;;;;10.95;4.10;;;41.20;25.40;;;;;;5043826;28;20204;-71
2021/10/07 10:40:37;;;;;;;4.65;3.53;;;41.50;25.10;;;;;;5049521;28;20207;-71
2021/10/07 10:43:34;;;;;;;7.20;3.53;;;42.30;24.40;;;;;;5050221;28;20210;-70
2021/10/07 10:46:17;;;;;;;9.73;3.67;;;42.80;24.00;;;;;;5012286;28;20232;-71
2021/10/07 10:49:00;;;;;;;9.80;3.55;;;42.90;23.80;;;;;;5050105;28;20208;-71
2021/10/07 10:51:49;;;;;;;6.72;3.50;;;43.30;23.50;;;;;;5051820;28;20213;-71
2021/10/07 10:54:16;;;;;;;9.18;3.67;;;43.30;23.10;;;;;;5042189;28;20216;-70
2021/10/07 10:56:58;;;;;;;7.45;3.42;;;43.20;23.30;;;;;;5049041;28;20217;-71
2021/10/07 10:59:27;;;;;;;12.00;3.50;;;43.20;23.30;;;;;;5052136;28;20243;-72
2021/10/07 11:02:26;;;;;;;12.20;4.00;;;43.10;23.10;;;;;;5046842;28;20734;-70
2021/10/07 11:04:55;;;;;;;6.43;3.42;;;43.10;23.10;;;;;;5049488;28;20288;-70
2021/10/07 11:07:25;;;;;;;9.68;3.38;;;43.70;23.10;;;;;;5053127;28;20205;-71
2021/10/07 11:10:05;;;;;;;14.60;3.22;;;43.70;22.60;;;;;;5044312;28;20202;-70
2021/10/07 11:12:41;;;;;;;4.22;3.17;;;43.50;22.50;;;;;;5053215;28;20280;-71
2021/10/07 11:15:09;;;;;;;9.73;3.67;;;43.60;22.90;;;;;;5046161;28;20202;-69
2021/10/07 11:17:39;;;;;;;6.60;3.75;;;43.90;22.30;;;;;;5053122;28;20201;-71
2021/10/07 11:20:07;;;;;;;13.80;3.78;;;44.30;22.20;;;;;;5046069;28;20301;-70
2021/10/07 11:22:33;;;;;;;8.82;3.95;;;44.10;22.20;;;;;;5051569;28;20206;-69
2021/10/07 11:25:00;;;;;;;15.43;3.85;;;43.20;22.00;;;;;;5053494;28;20293;-71
2021/10/07 11:27:36;;;;;;;8.80;3.58;;;42.60;22.50;;;;;;5045490;28;20278;-70
2021/10/07 11:30:06;;;;;;;8.05;3.90;;;42.70;22.40;;;;;;5054741;28;20203;-71
2021/10/07 11:32:32;;;;;;;7.45;3.80;;;43.10;22.30;;;;;;5047601;28;20215;-71
2021/10/07 11:35:07;;;;;;;11.27;3.35;;;42.90;22.00;;;;;;5052934;28;20221;-71
2021/10/07 11:38:05;;;;;;;10.55;3.90;;;42.20;22.40;;;;;;5051533;28;20332;-71
2021/10/07 11:40:36;;;;;;;10.05;3.63;;;41.90;22.60;;;;;;5025867;28;20229;-71
2021/10/07 11:43:06;;;;;;;7.65;3.80;;;42.30;22.60;;;;;;5049343;28;20206;-72
2021/10/07 11:45:34;;;;;;;9.43;3.90;;;43.30;22.30;;;;;;5053198;28;20575;-71
2021/10/07 11:48:07;;;;;;;10.70;3.63;;;44.40;21.90;;;;;;5051110;28;20564;-71
2021/10/07 11:50:38;;;;;;;7.40;3.85;;;45.00;21.10;;;;;;5047832;28;20623;-72
2021/10/07 11:53:07;;;;;;;6.55;3.78;;;44.90;21.40;;;;;;5053246;28;20227;-69
2021/10/07 11:55:34;;;;;;;8.35;3.00;;;45.00;21.10;;;;;;5053392;28;20213;-68
2021/10/07 11:58:02;;;;;;;10.85;3.60;;;44.60;21.30;;;;;;5051520;28;20217;-69
2021/10/07 12:00:47;;;;;;;11.23;3.75;;;43.70;21.20;;;;;;5046034;28;20230;-68
2021/10/07 12:03:23;;;;;;;10.90;3.70;;;42.80;21.40;;;;;;5048570;28;20202;-71
2021/10/07 12:05:55;;;;;;;9.73;3.83;;;42.50;22.30;;;;;;5046163;28;20309;-68
2021/10/07 12:08:25;;;;;;;13.27;3.80;;;42.40;21.70;;;;;;5050697;28;20208;-69
2021/10/07 12:10:55;;;;;;;8.93;3.80;;;42.70;21.90;;;;;;5053486;28;20209;-71
2021/10/07 12:13:24;;;;;;;11.05;3.35;;;43.50;21.40;;;;;;5050530;28;20325;-67
2021/10/07 12:15:55;;;;;;;8.73;3.30;;;43.90;21.20;;;;;;5050667;28;20210;-70
2021/10/07 12:18:24;;;;;;;7.10;3.70;;;44.70;21.20;;;;;;5048702;28;20230;-70
2021/10/07 12:21:05;;;;;;;9.55;3.13;;;44.80;20.70;;;;;;5045417;28;20748;-72
2021/10/07 12:23:45;;;;;;;15.45;3.55;;;44.10;20.60;;;;;;5053177;28;20233;-70
2021/10/07 12:26:12;;;;;;;9.55;3.50;;;42.90;20.70;;;;;;5053254;28;20289;-71
2021/10/07 12:28:42;;;;;;;7.35;3.60;;;42.10;21.60;;;;;;5052972;28;20208;-70
2021/10/07 12:31:09;;;;;;;6.30;3.47;;;41.60;21.90;;;;;;5053121;28;20582;-70
2021/10/07 12:33:36;;;;;;;8.00;3.80;;;41.30;22.60;;;;;;5054227;28;20667;-70
2021/10/07 12:36:07;;;;;;;14.27;3.75;;;41.10;22.00;;;;;;5053044;28;20265;-71
2021/10/07 12:38:48;;;;;;;8.73;3.67;;;40.80;22.40;;;;;;5049768;28;20746;-71
2021/10/07 12:41:16;;;;;;;9.02;3.75;;;40.50;22.40;;;;;;5054812;28;20329;-70
2021/10/07 12:43:57;;;;;;;8.95;3.80;;;39.70;23.10;;;;;;5053492;28;20340;-70
2021/10/07 12:46:25;;;;;;;13.70;3.60;;;38.70;23.30;;;;;;5055371;28;20212;-70
2021/10/07 12:48:54;;;;;;;8.55;3.55;;;38.50;23.90;;;;;;5051364;28;20289;-71
2021/10/07 12:51:25;;;;;;;13.43;3.90;;;38.40;23.60;;;;;;5051855;28;20373;-70
2021/10/07 12:53:53;;;;;;;13.77;3.67;;;38.00;23.90;;;;;;5041447;28;20206;-72